createdAt,value
2022-12-04T00:01:31.206Z,24.50
2022-12-04T00:03:57.655Z,23.36
2022-12-04T00:06:24.103Z,22.56
2022-12-04T00:08:50.583Z,22.42
2022-12-04T00:11:17.023Z,23.87
2022-12-04T00:13:43.632Z,22.97
2022-12-04T00:16:10.101Z,22.47
2022-12-04T00:18:36.587Z,22.87
2022-12-04T00:21:03.019Z,23.22
2022-12-04T00:23:29.450Z,23.76
2022-12-04T00:25:55.958Z,23.35
2022-12-04T00:28:22.379Z,22.62
2022-12-04T00:30:48.819Z,23.34
2022-12-04T00:33:15.379Z,24.60
2022-12-04T00:35:41.805Z,23.23
2022-12-04T00:38:08.247Z,23.49
2022-12-04T00:40:34.661Z,23.55
2022-12-04T00:43:01.074Z,23.82
2022-12-04T00:45:27.583Z,24.18
2022-12-04T00:47:54.065Z,24.09
2022-12-04T00:50:20.490Z,23.57
2022-12-04T00:52:46.922Z,23.65
2022-12-04T00:55:13.349Z,25.66
2022-12-04T00:57:39.769Z,23.85
2022-12-04T01:00:06.194Z,23.97
2022-12-04T01:02:32.645Z,24.14
2022-12-04T01:04:59.091Z,24.06
2022-12-04T01:07:25.543Z,25.77
2022-12-04T01:09:52.084Z,23.82
2022-12-04T01:12:20.960Z,23.82
2022-12-04T01:14:47.618Z,23.76
2022-12-04T01:17:14.044Z,24.32
2022-12-04T01:19:40.474Z,23.69
2022-12-04T01:22:06.904Z,24.39
2022-12-04T01:24:33.304Z,23.85
2022-12-04T01:26:59.727Z,23.23
2022-12-04T01:29:26.152Z,23.64
2022-12-04T01:31:52.649Z,22.83
2022-12-04T01:34:19.133Z,23.28
2022-12-04T01:36:45.587Z,23.48
2022-12-04T01:39:11.999Z,23.54
2022-12-04T01:41:38.430Z,23.86
2022-12-04T01:44:04.848Z,23.81
2022-12-04T01:46:31.299Z,23.92
2022-12-04T01:48:57.729Z,24.13
2022-12-04T01:51:24.142Z,23.94
2022-12-04T01:53:50.615Z,23.49
2022-12-04T01:56:17.034Z,24.12
2022-12-04T01:58:43.449Z,24.23
2022-12-04T02:01:09.905Z,24.54
2022-12-04T02:03:36.387Z,25.00
2022-12-04T02:06:02.826Z,25.09
2022-12-04T02:08:29.236Z,24.33
2022-12-04T02:10:55.664Z,24.68
2022-12-04T02:13:22.112Z,24.15
2022-12-04T02:15:48.528Z,25.77
2022-12-04T02:18:14.935Z,24.84
2022-12-04T02:20:41.360Z,24.96
2022-12-04T02:23:07.784Z,24.23
2022-12-04T02:25:34.238Z,25.54
2022-12-04T02:28:00.711Z,25.62
2022-12-04T02:30:27.172Z,24.35
2022-12-04T02:32:53.642Z,23.70
2022-12-04T02:35:20.086Z,24.07
2022-12-04T02:37:46.488Z,24.42
2022-12-04T02:40:13.030Z,23.93
2022-12-04T02:42:39.472Z,23.87
2022-12-04T02:45:05.879Z,24.02
2022-12-04T02:47:32.308Z,25.64
2022-12-04T02:49:58.859Z,24.42
2022-12-04T02:52:25.328Z,24.35
2022-12-04T02:54:51.765Z,24.15
2022-12-04T02:57:18.185Z,24.59
2022-12-04T02:59:44.615Z,24.61
2022-12-04T03:02:11.080Z,23.39
2022-12-04T03:04:37.569Z,24.32
2022-12-04T03:07:04.017Z,24.13
2022-12-04T03:09:30.424Z,24.89
2022-12-04T03:11:56.837Z,23.57
2022-12-04T03:14:23.343Z,23.01
2022-12-04T03:16:49.790Z,23.10
2022-12-04T03:19:16.201Z,26.08
2022-12-04T03:21:42.602Z,23.96
2022-12-04T03:24:09.042Z,23.92
2022-12-04T03:26:35.504Z,23.42
2022-12-04T03:29:01.943Z,23.57
2022-12-04T03:31:28.375Z,24.35
2022-12-04T03:33:54.798Z,23.73
2022-12-04T03:36:21.239Z,23.73
2022-12-04T03:38:47.665Z,23.59
2022-12-04T03:41:14.067Z,24.52
2022-12-04T03:43:40.494Z,24.01
2022-12-04T03:46:06.958Z,24.49
2022-12-04T03:48:33.408Z,23.73
2022-12-04T03:50:59.845Z,24.35
2022-12-04T03:53:26.272Z,24.59
2022-12-04T03:55:52.719Z,24.14
2022-12-04T03:58:19.118Z,24.78
2022-12-04T04:00:45.529Z,24.00
2022-12-04T04:03:11.974Z,24.51
2022-12-04T04:05:38.394Z,24.84
2022-12-04T04:08:04.905Z,23.93
2022-12-04T04:10:31.391Z,24.42
2022-12-04T04:12:57.821Z,24.42
2022-12-04T04:15:24.223Z,25.20
2022-12-04T04:17:50.629Z,24.58
2022-12-04T04:20:17.068Z,23.90
2022-12-04T04:22:43.504Z,24.91
2022-12-04T04:25:09.928Z,25.65
2022-12-04T04:27:36.355Z,24.79
2022-12-04T04:30:02.784Z,24.18
2022-12-04T04:32:29.173Z,24.46
2022-12-04T04:34:55.598Z,26.41
2022-12-04T04:37:22.062Z,27.59
2022-12-04T04:39:48.479Z,24.46
2022-12-04T04:42:14.911Z,23.72
2022-12-04T04:44:41.330Z,24.45
2022-12-04T04:47:07.780Z,25.40
2022-12-04T04:49:34.213Z,24.95
2022-12-04T04:52:00.649Z,23.54
2022-12-04T04:54:27.083Z,24.39
2022-12-04T04:56:53.542Z,23.96
2022-12-04T04:59:19.950Z,24.02
2022-12-04T05:01:46.433Z,23.36
2022-12-04T05:04:12.995Z,24.32
2022-12-04T05:06:39.401Z,24.74
2022-12-04T05:09:05.830Z,24.74
2022-12-04T05:11:32.255Z,24.66
2022-12-04T05:13:58.698Z,24.93
2022-12-04T05:16:25.154Z,25.19
2022-12-04T05:18:51.619Z,25.11
2022-12-04T05:21:18.039Z,30.04
2022-12-04T05:23:44.454Z,24.47
2022-12-04T05:26:10.874Z,24.07
2022-12-04T05:28:37.307Z,24.06
2022-12-04T05:31:03.781Z,25.28
2022-12-04T05:33:30.282Z,24.76
2022-12-04T05:35:56.696Z,24.16
2022-12-04T05:38:23.113Z,24.71
2022-12-04T05:40:49.571Z,25.17
2022-12-04T05:43:16.031Z,24.55
2022-12-04T05:45:42.443Z,24.33
2022-12-04T05:48:08.877Z,24.11
2022-12-04T05:50:35.282Z,23.68
2022-12-04T05:53:01.679Z,23.96
2022-12-04T05:55:28.111Z,24.00
2022-12-04T05:57:54.543Z,24.17
2022-12-04T06:00:20.982Z,23.64
2022-12-04T06:02:47.454Z,24.38
2022-12-04T06:05:13.903Z,23.66
2022-12-04T06:07:40.360Z,24.18
2022-12-04T06:10:06.821Z,24.52
2022-12-04T06:12:33.294Z,24.51
2022-12-04T06:14:59.704Z,27.89
2022-12-04T06:17:26.168Z,24.70
2022-12-04T06:19:52.655Z,25.36
2022-12-04T06:22:19.236Z,24.37
2022-12-04T06:24:45.667Z,23.07
2022-12-04T06:27:27.347Z,21.86
2022-12-04T06:29:54.895Z,22.54
2022-12-04T06:32:22.284Z,21.67
2022-12-04T06:34:48.884Z,21.93
2022-12-04T06:37:15.309Z,23.07
2022-12-04T06:39:41.769Z,23.16
2022-12-04T06:42:08.171Z,21.60
2022-12-04T06:44:34.580Z,21.92
2022-12-04T06:47:01.385Z,21.72
2022-12-04T06:49:27.840Z,22.69
2022-12-04T06:51:54.293Z,23.47
2022-12-04T06:54:20.707Z,23.22
2022-12-04T06:56:47.166Z,23.16
2022-12-04T06:59:13.666Z,23.41
2022-12-04T07:01:40.180Z,23.60
2022-12-04T07:04:06.612Z,24.19
2022-12-04T07:06:33.043Z,22.99
2022-12-04T07:08:59.524Z,23.29
2022-12-04T07:11:25.997Z,27.27
2022-12-04T07:13:52.448Z,23.29
2022-12-04T07:16:18.925Z,22.95
2022-12-04T07:18:45.473Z,23.42
2022-12-04T07:21:11.889Z,27.51
2022-12-04T07:23:38.323Z,24.52
2022-12-04T07:26:04.757Z,22.76
2022-12-04T07:28:31.206Z,23.20
2022-12-04T07:30:57.673Z,23.65
2022-12-04T07:33:24.093Z,28.23
2022-12-04T07:35:50.503Z,40.54
2022-12-04T07:38:16.941Z,34.85
2022-12-04T07:40:43.381Z,24.68
2022-12-04T07:43:09.773Z,24.23
2022-12-04T07:45:36.221Z,25.72
2022-12-04T07:48:02.705Z,24.82
2022-12-04T07:50:29.168Z,24.70
2022-12-04T07:52:55.593Z,33.30
2022-12-04T07:55:23.459Z,27.61
2022-12-04T07:57:49.989Z,27.23
2022-12-04T08:00:16.429Z,24.28
2022-12-04T08:02:42.849Z,23.90
2022-12-04T08:05:09.337Z,23.91
2022-12-04T08:07:35.906Z,24.72
2022-12-04T08:10:02.431Z,26.76
2022-12-04T08:12:28.859Z,25.28
2022-12-04T08:14:55.302Z,26.34
2022-12-04T08:17:21.831Z,27.82
2022-12-04T08:19:48.315Z,25.97
2022-12-04T08:22:14.750Z,25.89
2022-12-04T08:24:41.193Z,24.93
2022-12-04T08:27:07.603Z,25.84
2022-12-04T08:29:34.045Z,25.62
2022-12-04T08:32:00.456Z,25.65
2022-12-04T08:34:26.944Z,24.88
2022-12-04T08:36:53.346Z,25.26
2022-12-04T08:39:19.770Z,24.96
2022-12-04T08:41:46.210Z,26.21
2022-12-04T08:44:12.644Z,26.58
2022-12-04T08:46:39.121Z,25.38
2022-12-04T08:49:05.606Z,25.95
2022-12-04T08:51:32.022Z,29.21
2022-12-04T08:53:58.429Z,27.28
2022-12-04T08:56:24.901Z,27.96
2022-12-04T08:58:51.343Z,25.24
2022-12-04T09:01:17.869Z,24.89
2022-12-04T09:03:44.336Z,24.29
2022-12-04T09:06:10.780Z,24.89
2022-12-04T09:08:37.218Z,27.02
2022-12-04T09:11:03.713Z,25.83
2022-12-04T09:13:30.160Z,25.21
2022-12-04T09:15:56.690Z,24.67
2022-12-04T09:18:23.171Z,24.14
2022-12-04T09:20:49.595Z,23.81
2022-12-04T09:23:16.008Z,24.40
2022-12-04T09:25:42.441Z,27.46
2022-12-04T09:28:08.858Z,23.88
2022-12-04T09:30:35.335Z,25.52
2022-12-04T09:33:01.749Z,27.40
2022-12-04T09:35:28.182Z,25.76
2022-12-04T09:37:54.621Z,25.06
2022-12-04T09:40:21.087Z,25.15
2022-12-04T09:42:47.532Z,26.49
2022-12-04T09:45:13.966Z,26.80
2022-12-04T09:47:40.361Z,26.95
2022-12-04T09:50:06.834Z,28.81
2022-12-04T09:52:33.264Z,26.11
2022-12-04T09:54:59.682Z,25.10
2022-12-04T09:57:26.218Z,26.58
2022-12-04T09:59:52.799Z,28.07
2022-12-04T10:02:19.729Z,28.57
2022-12-04T10:04:46.239Z,26.20
2022-12-04T10:07:12.665Z,25.71
2022-12-04T10:09:39.062Z,24.92
2022-12-04T10:12:05.463Z,23.94
2022-12-04T10:14:31.884Z,24.92
2022-12-04T10:16:58.318Z,24.59
2022-12-04T10:19:24.803Z,23.91
2022-12-04T10:21:51.218Z,24.35
2022-12-04T10:24:17.642Z,24.43
2022-12-04T10:26:44.059Z,24.80
2022-12-04T10:29:10.521Z,24.74
2022-12-04T10:31:37.026Z,24.09
2022-12-04T10:34:03.476Z,23.85
2022-12-04T10:36:29.896Z,25.35
2022-12-04T10:38:56.379Z,24.72
2022-12-04T10:41:22.813Z,25.13
2022-12-04T10:43:49.225Z,27.34
2022-12-04T10:46:15.668Z,25.15
2022-12-04T10:48:42.156Z,25.00
2022-12-04T10:51:08.567Z,25.30
2022-12-04T10:53:34.991Z,28.44
2022-12-04T10:56:01.429Z,32.29
2022-12-04T10:58:27.883Z,34.34
2022-12-04T11:00:54.340Z,30.32
2022-12-04T11:03:20.863Z,30.73
2022-12-04T11:05:47.320Z,28.06
2022-12-04T11:08:19.553Z,29.49
2022-12-04T11:10:46.328Z,28.16
2022-12-04T11:13:12.757Z,28.05
2022-12-04T11:15:39.180Z,28.91
2022-12-04T11:18:05.618Z,28.65
2022-12-04T11:20:32.074Z,26.92
2022-12-04T11:22:58.490Z,27.26
2022-12-04T11:25:24.928Z,27.29
2022-12-04T11:27:51.448Z,26.15
2022-12-04T11:30:17.973Z,28.53
2022-12-04T11:32:44.459Z,28.25
2022-12-04T11:35:10.901Z,25.54
2022-12-04T11:37:40.581Z,23.07
2022-12-04T11:40:11.455Z,23.03
2022-12-04T11:42:37.872Z,30.29
2022-12-04T11:45:04.331Z,23.98
2022-12-04T11:47:30.757Z,22.77
2022-12-04T11:49:57.405Z,22.56
2022-12-04T11:52:23.992Z,23.39
2022-12-04T11:54:50.417Z,25.08
2022-12-04T11:57:16.856Z,24.16
2022-12-04T11:59:43.279Z,24.81
2022-12-04T12:02:09.808Z,23.76
2022-12-04T12:04:36.296Z,24.09
2022-12-04T12:07:02.750Z,29.04
2022-12-04T12:09:29.185Z,24.51
2022-12-04T12:11:55.771Z,24.16
2022-12-04T12:14:22.170Z,23.73
2022-12-04T12:16:51.337Z,22.69
2022-12-04T12:19:18.089Z,23.10
2022-12-04T12:21:44.517Z,23.85
2022-12-04T12:24:10.931Z,25.07
2022-12-04T12:26:37.382Z,25.28
2022-12-04T12:29:03.820Z,24.42
2022-12-04T12:31:30.253Z,23.79
2022-12-04T12:33:56.732Z,24.29
2022-12-04T12:36:23.189Z,24.40
2022-12-04T12:38:49.615Z,28.25
2022-12-04T12:41:16.057Z,33.42
2022-12-04T12:43:42.575Z,24.02
2022-12-04T12:46:09.062Z,24.76
2022-12-04T12:48:35.525Z,25.08
2022-12-04T12:51:28.556Z,24.88
2022-12-04T12:53:48.359Z,25.38
2022-12-04T12:56:14.798Z,27.16
2022-12-04T12:58:41.231Z,25.84
2022-12-04T13:01:07.797Z,32.83
2022-12-04T13:03:34.243Z,30.80
2022-12-04T13:06:00.722Z,24.60
2022-12-04T13:08:27.223Z,28.15
2022-12-04T13:10:53.633Z,26.23
2022-12-04T13:13:20.066Z,20.50
2022-12-04T13:15:46.479Z,21.04
2022-12-04T13:18:12.912Z,22.38
2022-12-04T13:20:39.370Z,26.65
2022-12-04T13:23:05.818Z,28.03
2022-12-04T13:25:32.311Z,26.77
2022-12-04T13:27:58.763Z,26.01
2022-12-04T13:30:25.189Z,25.33
2022-12-04T13:32:51.636Z,23.43
2022-12-04T13:35:18.046Z,36.65
2022-12-04T13:37:44.498Z,24.98
2022-12-04T13:40:10.997Z,25.53
2022-12-04T13:42:37.437Z,22.51
2022-12-04T13:45:03.858Z,21.43
2022-12-04T13:47:30.258Z,22.05
2022-12-04T13:49:56.682Z,26.22
2022-12-04T13:52:23.101Z,25.68
2022-12-04T13:54:49.531Z,22.30
2022-12-04T13:57:15.990Z,21.87
2022-12-04T13:59:42.429Z,22.66
2022-12-04T14:02:08.865Z,22.85
2022-12-04T14:04:35.330Z,24.70
2022-12-04T14:07:01.795Z,25.05
2022-12-04T14:09:28.207Z,26.89
2022-12-04T14:11:54.638Z,25.62
2022-12-04T14:14:21.044Z,28.10
2022-12-04T14:16:47.579Z,22.75
2022-12-04T14:19:14.098Z,26.43
2022-12-04T14:21:40.525Z,23.87
2022-12-04T14:24:06.953Z,23.24
2022-12-04T14:27:03.197Z,24.05
2022-12-04T14:29:19.837Z,22.89
2022-12-04T14:31:46.279Z,22.36
2022-12-04T14:34:12.712Z,22.27
2022-12-04T14:36:39.166Z,21.15
2022-12-04T14:39:05.597Z,21.52
2022-12-04T14:41:32.002Z,20.97
2022-12-04T14:43:58.441Z,21.47
2022-12-04T14:46:24.930Z,21.08
2022-12-04T14:48:51.366Z,20.17
2022-12-04T14:51:17.996Z,20.91
2022-12-04T14:53:44.518Z,21.81
2022-12-04T14:56:10.952Z,22.34
2022-12-04T14:58:37.375Z,25.87
2022-12-04T15:01:03.811Z,24.72
2022-12-04T15:03:30.317Z,25.79
2022-12-04T15:05:56.791Z,23.82
2022-12-04T15:08:23.305Z,24.64
2022-12-04T15:10:50.978Z,25.73
2022-12-04T15:13:21.632Z,24.11
2022-12-04T15:15:48.323Z,23.06
2022-12-04T15:18:14.970Z,23.20
2022-12-04T15:20:41.451Z,25.38
2022-12-04T15:23:07.898Z,26.68
2022-12-04T15:25:34.350Z,26.52
2022-12-04T15:28:00.778Z,26.48
2022-12-04T15:30:27.187Z,25.91
2022-12-04T15:32:53.629Z,24.06
2022-12-04T15:35:20.041Z,25.83
2022-12-04T15:37:46.442Z,23.15
2022-12-04T15:40:12.893Z,22.75
2022-12-04T15:42:39.336Z,22.79
2022-12-04T15:45:05.772Z,21.90
2022-12-04T15:47:32.197Z,22.56
2022-12-04T15:49:58.742Z,24.59
2022-12-04T15:52:25.221Z,25.76
2022-12-04T15:54:51.661Z,49.91
2022-12-04T15:57:18.087Z,43.06
2022-12-04T15:59:44.518Z,49.74
2022-12-04T16:02:11.084Z,30.32
2022-12-04T16:04:42.490Z,33.83
2022-12-04T16:07:11.748Z,98.69
2022-12-04T16:09:38.177Z,85.30
2022-12-04T16:12:04.594Z,41.79
2022-12-04T16:14:31.085Z,28.79
2022-12-04T16:17:02.508Z,23.09
2022-12-04T16:19:32.195Z,21.86
2022-12-04T16:21:58.715Z,21.98
2022-12-04T16:24:29.066Z,24.63
2022-12-04T16:27:00.517Z,38.80
2022-12-04T16:32:14.671Z,21.13
2022-12-04T16:34:56.608Z,21.04
2022-12-04T16:37:23.313Z,21.27
2022-12-04T16:39:52.074Z,22.77
2022-12-04T16:42:19.179Z,23.66
2022-12-04T16:44:46.799Z,24.59
2022-12-04T16:47:13.442Z,22.43
2022-12-04T16:49:40.109Z,24.88
2022-12-04T16:52:06.762Z,23.81
2022-12-04T16:54:33.352Z,23.54
2022-12-04T16:57:00.957Z,22.04
2022-12-04T16:59:28.556Z,21.55
2022-12-04T17:01:56.229Z,21.25
2022-12-04T17:04:23.787Z,20.67
2022-12-04T17:06:51.326Z,20.51
2022-12-04T17:09:17.917Z,20.45
2022-12-04T17:11:44.503Z,23.28
2022-12-04T17:14:11.415Z,24.90
2022-12-04T17:16:38.008Z,25.03
2022-12-04T17:19:04.536Z,22.83
2022-12-04T17:21:31.851Z,21.61
2022-12-04T17:23:59.470Z,21.23
2022-12-04T17:26:28.064Z,20.03
2022-12-04T17:28:54.662Z,21.47
2022-12-04T17:31:21.213Z,22.20
2022-12-04T17:33:47.849Z,22.10
2022-12-04T17:36:15.438Z,22.76
2022-12-04T17:38:42.029Z,21.90
2022-12-04T17:41:09.626Z,21.52
2022-12-04T17:43:36.239Z,22.06
2022-12-04T17:46:05.348Z,22.73
2022-12-04T17:48:31.818Z,22.22
2022-12-04T17:50:58.371Z,22.79
2022-12-04T17:53:24.945Z,21.62
2022-12-04T17:55:53.197Z,21.72
2022-12-04T17:58:20.784Z,22.87
2022-12-04T18:00:48.444Z,22.81
2022-12-04T18:03:17.009Z,22.35
2022-12-04T18:05:44.569Z,22.84
2022-12-04T18:08:12.232Z,22.48
2022-12-04T18:10:39.761Z,22.21
2022-12-04T18:13:06.674Z,21.11
2022-12-04T18:15:33.145Z,22.23
2022-12-04T18:17:59.614Z,20.83
2022-12-04T18:20:26.131Z,20.66
2022-12-04T18:22:52.576Z,22.36
2022-12-04T18:25:19.090Z,22.49
2022-12-04T18:27:45.551Z,28.86
2022-12-04T18:30:12.050Z,25.74
2022-12-04T18:32:38.550Z,28.13
2022-12-04T18:35:05.683Z,25.22
2022-12-04T18:37:33.254Z,28.21
2022-12-04T18:40:05.910Z,25.31
2022-12-04T18:42:34.465Z,21.80
2022-12-04T18:45:03.080Z,22.17
2022-12-04T18:47:30.701Z,25.59
2022-12-04T18:49:58.592Z,22.08
2022-12-04T18:52:25.850Z,20.83
2022-12-04T18:54:52.333Z,21.65
2022-12-04T18:57:18.830Z,22.42
2022-12-04T18:59:45.616Z,20.70
2022-12-04T19:02:13.246Z,21.36
2022-12-04T19:04:40.839Z,22.24
2022-12-04T19:07:07.442Z,21.38
2022-12-04T19:10:09.259Z,22.09
2022-12-04T19:12:23.773Z,19.93
2022-12-04T19:14:52.488Z,20.08
2022-12-04T19:17:20.905Z,18.94
2022-12-04T19:19:48.517Z,20.20
2022-12-04T19:22:15.351Z,18.87
2022-12-04T19:24:41.833Z,19.61
2022-12-04T19:27:08.332Z,19.58
2022-12-04T19:29:34.889Z,19.03
2022-12-04T19:32:01.409Z,19.28
2022-12-04T19:34:28.068Z,19.01
2022-12-04T19:36:55.667Z,19.55
2022-12-04T19:39:22.276Z,19.93
2022-12-04T19:41:49.840Z,19.79
2022-12-04T19:44:47.495Z,21.13
2022-12-04T19:47:04.094Z,21.24
2022-12-04T19:49:31.722Z,20.03
2022-12-04T19:51:58.329Z,18.61
2022-12-04T19:54:26.005Z,18.84
2022-12-04T19:56:53.543Z,19.12
2022-12-04T19:59:23.131Z,18.76
2022-12-04T20:01:49.852Z,19.25
2022-12-04T20:04:17.350Z,18.86
2022-12-04T20:06:43.824Z,19.64
2022-12-04T20:09:10.302Z,19.66
2022-12-04T20:11:37.108Z,20.42
2022-12-04T20:14:04.705Z,19.57
2022-12-04T20:16:31.346Z,19.45
2022-12-04T20:18:58.907Z,20.14
2022-12-04T20:21:26.477Z,22.73
2022-12-04T20:23:54.073Z,21.41
2022-12-04T20:26:20.543Z,19.87
2022-12-04T20:28:47.022Z,20.35
2022-12-04T20:31:13.500Z,19.79
2022-12-04T20:33:40.435Z,19.49
2022-12-04T20:36:08.027Z,19.53
2022-12-04T20:38:34.621Z,20.18
2022-12-04T20:41:02.219Z,19.89
2022-12-04T20:43:29.797Z,20.75
2022-12-04T20:45:56.716Z,19.72
2022-12-04T20:48:23.268Z,20.31
2022-12-04T20:50:49.784Z,20.44
2022-12-04T20:53:18.183Z,20.95
2022-12-04T20:55:45.774Z,20.22
2022-12-04T20:58:14.486Z,20.36
2022-12-04T21:00:41.960Z,22.17
2022-12-04T21:03:09.613Z,21.07
2022-12-04T21:05:38.166Z,21.40
2022-12-04T21:08:04.808Z,21.46
2022-12-04T21:10:33.353Z,21.59
2022-12-04T21:13:00.963Z,20.95
2022-12-04T21:15:28.579Z,21.52
2022-12-04T21:17:56.174Z,22.35
2022-12-04T21:20:23.752Z,22.91
2022-12-04T21:22:50.225Z,21.32
2022-12-04T21:25:16.946Z,22.41
2022-12-04T21:27:43.537Z,22.26
2022-12-04T21:30:11.184Z,22.19
2022-12-04T21:32:38.767Z,22.78
2022-12-04T21:35:05.350Z,23.71
2022-12-04T21:37:32.941Z,22.41
2022-12-04T21:39:59.872Z,21.49
2022-12-04T21:42:27.125Z,22.71
2022-12-04T21:44:53.616Z,22.71
2022-12-04T21:47:20.344Z,22.95
2022-12-04T21:49:47.911Z,22.49
2022-12-04T21:52:15.517Z,22.29
2022-12-04T21:54:42.131Z,22.35
2022-12-04T21:57:09.036Z,22.09
2022-12-04T21:59:35.533Z,21.46
2022-12-04T22:02:02.115Z,21.43
2022-12-04T22:04:28.658Z,20.27
2022-12-04T22:06:56.070Z,20.12
2022-12-04T22:09:22.652Z,18.01
2022-12-04T22:11:49.256Z,17.86
2022-12-04T22:14:16.867Z,17.86
2022-12-04T22:16:45.531Z,17.48
2022-12-04T22:19:13.036Z,18.91
2022-12-04T22:21:40.639Z,18.45
2022-12-04T22:24:07.217Z,19.03
2022-12-04T22:26:33.742Z,18.25
2022-12-04T22:29:00.200Z,18.27
2022-12-04T22:31:27.031Z,18.24
2022-12-04T22:33:54.581Z,17.06
2022-12-04T22:36:23.194Z,16.99
2022-12-04T22:39:09.721Z,15.66
2022-12-04T22:41:37.502Z,16.05
2022-12-04T22:44:05.063Z,16.51
2022-12-04T22:46:31.748Z,16.28
2022-12-04T22:48:59.272Z,15.81
2022-12-04T22:51:25.881Z,15.62
2022-12-04T22:53:53.463Z,14.85
2022-12-04T22:56:20.052Z,12.90
2022-12-04T22:58:47.651Z,12.48
2022-12-04T23:01:15.245Z,12.40
2022-12-04T23:03:42.843Z,11.58
2022-12-04T23:06:09.324Z,11.14
2022-12-04T23:08:35.819Z,11.41
2022-12-04T23:11:02.294Z,10.64
2022-12-04T23:13:29.189Z,10.88
2022-12-04T23:15:56.811Z,15.78
2022-12-04T23:18:24.371Z,16.84
2022-12-04T23:20:51.948Z,17.44
2022-12-04T23:23:18.561Z,17.58
2022-12-04T23:25:45.152Z,16.45
2022-12-04T23:28:13.750Z,15.54
2022-12-04T23:30:41.345Z,15.20
2022-12-04T23:33:07.928Z,18.68
2022-12-04T23:35:34.529Z,14.26
2022-12-04T23:38:01.153Z,13.58
2022-12-04T23:40:28.752Z,13.04
2022-12-04T23:42:55.451Z,12.82
2022-12-04T23:45:22.065Z,12.91
2022-12-04T23:47:49.762Z,13.96
2022-12-04T23:50:16.763Z,14.19
2022-12-04T23:52:43.239Z,14.38
2022-12-04T23:55:09.679Z,13.57
2022-12-04T23:57:37.130Z,14.82
